Time;durP1;ratioP1;P1;durP2;ratioP2;P2;SDS_P1;SDS_P2;PMS_P1;PMS_P2;Temp;Humidity;BMP_temperature;BMP_pressure;BME280_temperature;BME280_humidity;BME280_pressure;Samples;Min_cycle;Max_cycle;Signal;HPM_P1;HPM_P2
2021/08/14 00:00:59;;;;;;;;;;;;;;;20.88;47.23;100945.27;472501;111;922694;-64
2021/08/14 00:02:03;;;;;;;;;;;;;;;20.88;47.29;100950.81;471090;111;922698;-66
2021/08/14 00:03:07;;;;;;;;;;;;;;;20.88;47.33;100945.27;470407;111;921600;-66
2021/08/14 00:04:11;;;;;;;;;;;;;;;20.87;47.37;100941.66;472176;111;922623;-66
2021/08/14 00:05:14;;;;;;;;;;;;;;;20.86;47.41;100945.53;469597;111;922691;-65
2021/08/14 00:06:18;;;;;;;;;;;;;;;20.85;47.42;100946.64;471018;111;922653;-66
2021/08/14 00:07:22;;;;;;;;;;;;;;;20.83;47.53;100943.33;468519;111;922639;-64
2021/08/14 00:08:26;;;;;;;;;;;;;;;20.81;47.53;100939.98;470201;111;922658;-66
2021/08/14 00:09:29;;;;;;;;;;;;;;;20.79;47.61;100940.25;469455;111;922617;-64
2021/08/14 00:10:33;;;;;;;;;;;;;;;20.79;47.68;100945.79;469701;111;922638;-65
2021/08/14 00:11:36;;;;;;;;;;;;;;;20.80;47.68;100932.77;469694;111;922652;-66
2021/08/14 00:12:41;;;;;;;;;;;;;;;20.80;47.71;100935.55;469485;111;922621;-66
2021/08/14 00:13:44;;;;;;;;;;;;;;;20.78;47.73;100944.12;468120;111;923340;-66
2021/08/14 00:14:48;;;;;;;;;;;;;;;20.78;47.81;100941.34;467949;111;921509;-64
2021/08/14 00:15:51;;;;;;;;;;;;;;;20.76;47.87;100939.98;467053;111;922607;-66
2021/08/14 00:16:55;;;;;;;;;;;;;;;20.75;47.95;100939.14;467804;111;922613;-66
2021/08/14 00:17:59;;;;;;;;;;;;;;;20.75;47.96;100946.62;465110;111;922699;-66
2021/08/14 00:19:03;;;;;;;;;;;;;;;20.74;48.03;100944.95;471063;111;922731;-66
2021/08/14 00:20:07;;;;;;;;;;;;;;;20.72;48.09;100941.64;471448;111;922645;-66
2021/08/14 00:21:11;;;;;;;;;;;;;;;20.73;48.10;100951.63;473426;111;923013;-66
2021/08/14 00:22:14;;;;;;;;;;;;;;;20.72;48.19;100941.64;472263;111;922636;-64
2021/08/14 00:23:18;;;;;;;;;;;;;;;20.71;48.19;100946.34;471706;111;922627;-65
2021/08/14 00:24:21;;;;;;;;;;;;;;;20.71;48.27;100959.36;472409;111;923100;-65
2021/08/14 00:25:25;;;;;;;;;;;;;;;20.69;48.33;100945.77;469817;111;923113;-66
2021/08/14 00:26:28;;;;;;;;;;;;;;;20.68;48.31;100957.95;471627;111;922695;-65
2021/08/14 00:27:32;;;;;;;;;;;;;;;20.68;48.34;100955.19;463794;113;922740;-66
2021/08/14 00:28:37;;;;;;;;;;;;;;;20.69;48.34;100956.02;463650;111;922749;-67
2021/08/14 00:29:42;;;;;;;;;;;;;;;20.69;48.33;100954.08;468939;111;922746;-66
2021/08/14 00:30:46;;;;;;;;;;;;;;;20.68;48.33;100960.73;470309;111;922692;-64
2021/08/14 00:31:49;;;;;;;;;;;;;;;20.69;48.35;100958.80;468695;111;921594;-66
2021/08/14 00:32:53;;;;;;;;;;;;;;;20.68;48.40;100960.73;469567;111;921555;-66
2021/08/14 00:33:56;;;;;;;;;;;;;;;20.69;48.43;100953.25;469438;111;921934;-66
2021/08/14 00:34:59;;;;;;;;;;;;;;;20.68;48.46;100955.19;469413;111;921509;-66
2021/08/14 00:36:04;;;;;;;;;;;;;;;20.69;48.46;100961.56;469343;111;921438;-66
2021/08/14 00:37:07;;;;;;;;;;;;;;;20.69;48.48;100959.63;468178;111;921397;-66
2021/08/14 00:38:10;;;;;;;;;;;;;;;20.70;48.51;100961.30;467839;111;921395;-66
2021/08/14 00:39:13;;;;;;;;;;;;;;;20.69;48.47;100964.33;467209;111;921549;-67
2021/08/14 00:40:16;;;;;;;;;;;;;;;20.67;48.54;100961.86;467619;111;921574;-67
2021/08/14 00:41:19;;;;;;;;;;;;;;;20.67;48.54;100958.25;469579;111;921367;-67
2021/08/14 00:42:23;;;;;;;;;;;;;;;20.65;48.55;100963.22;474045;111;921422;-66
2021/08/14 00:43:26;;;;;;;;;;;;;;;20.65;48.59;100971.53;472509;111;921426;-67
2021/08/14 00:44:31;;;;;;;;;;;;;;;20.62;48.61;100961.81;470739;111;921479;-66
2021/08/14 00:45:41;;;;;;;;;;;;;;;20.61;48.69;100962.95;472969;111;921477;-66
2021/08/14 00:46:46;;;;;;;;;;;;;;;20.61;48.72;100962.95;468075;111;921531;-66
2021/08/14 00:47:50;;;;;;;;;;;;;;;20.62;48.78;100970.13;469960;111;922656;-67
2021/08/14 00:48:54;;;;;;;;;;;;;;;20.62;48.76;100972.09;471946;111;922661;-67
2021/08/14 00:49:57;;;;;;;;;;;;;;;20.64;48.79;100973.47;472325;111;922680;-67
2021/08/14 00:51:00;;;;;;;;;;;;;;;20.66;48.75;100970.44;471327;111;923087;-66
2021/08/14 00:52:04;;;;;;;;;;;;;;;20.66;48.76;100971.27;470863;111;921457;-66
2021/08/14 00:53:08;;;;;;;;;;;;;;;20.67;48.73;100970.17;470839;111;921415;-66
2021/08/14 00:54:11;;;;;;;;;;;;;;;20.68;48.76;100966.27;469780;111;921438;-67
2021/08/14 00:55:15;;;;;;;;;;;;;;;20.70;48.80;100977.09;468672;111;922591;-66
2021/08/14 00:56:20;;;;;;;;;;;;;;;20.70;48.77;100972.38;468625;111;922682;-66
2021/08/14 00:57:23;;;;;;;;;;;;;;;20.71;48.77;100962.13;468180;111;922719;-66
2021/08/14 00:58:28;;;;;;;;;;;;;;;20.72;48.72;100974.89;469536;111;922661;-66
2021/08/14 00:59:31;;;;;;;;;;;;;;;20.72;48.72;100966.58;468547;111;922672;-66
2021/08/14 01:00:36;;;;;;;;;;;;;;;20.71;48.75;100962.97;466545;111;922717;-66
2021/08/14 01:01:39;;;;;;;;;;;;;;;20.72;48.76;100963.80;465743;111;923135;-65
2021/08/14 01:02:43;;;;;;;;;;;;;;;20.72;48.78;100970.19;466567;111;923119;-66
2021/08/14 01:03:47;;;;;;;;;;;;;;;20.72;48.80;100964.64;467482;111;922656;-65
2021/08/14 01:04:52;;;;;;;;;;;;;;;20.72;48.81;100964.64;470501;111;922664;-65
2021/08/14 01:05:56;;;;;;;;;;;;;;;20.72;48.82;100963.80;470978;111;922710;-66
2021/08/14 01:07:00;;;;;;;;;;;;;;;20.73;48.85;100965.48;471629;111;922617;-67
2021/08/14 01:08:04;;;;;;;;;;;;;;;20.72;48.87;100959.09;472827;111;922678;-64
2021/08/14 01:09:08;;;;;;;;;;;;;;;20.73;48.90;100957.16;471606;111;921425;-67
2021/08/14 01:10:11;;;;;;;;;;;;;;;20.73;48.94;100954.39;470381;111;921479;-66
2021/08/14 01:11:14;;;;;;;;;;;;;;;20.74;48.95;100956.03;470469;111;922016;-66
2021/08/14 01:12:18;;;;;;;;;;;;;;;20.74;48.89;100958.80;471377;111;921536;-66
2021/08/14 01:13:22;;;;;;;;;;;;;;;20.74;48.89;100956.03;470990;111;922532;-65
2021/08/14 01:14:25;;;;;;;;;;;;;;;20.73;48.89;100952.42;469555;111;922769;-66
2021/08/14 01:15:29;;;;;;;;;;;;;;;20.72;48.95;100959.09;469561;111;921478;-66
2021/08/14 01:16:32;;;;;;;;;;;;;;;20.73;48.99;100955.20;469930;111;921608;-66
2021/08/14 01:17:36;;;;;;;;;;;;;;;20.73;48.97;100955.20;470485;111;921455;-66
2021/08/14 01:18:43;;;;;;;;;;;;;;;20.74;48.95;100956.03;469623;111;921403;-65
2021/08/14 01:19:48;;;;;;;;;;;;;;;20.74;48.98;100956.03;469697;111;921577;-67
2021/08/14 01:20:51;;;;;;;;;;;;;;;20.75;49.01;100957.70;468925;111;922666;-65
2021/08/14 01:21:55;;;;;;;;;;;;;;;20.74;49.02;100964.34;467381;111;921422;-66
2021/08/14 01:22:58;;;;;;;;;;;;;;;20.75;49.05;100964.08;467741;111;921496;-64
2021/08/14 01:24:02;;;;;;;;;;;;;;;20.75;49.05;100961.31;467103;111;921883;-67
2021/08/14 01:25:06;;;;;;;;;;;;;;;20.74;49.06;100954.09;466253;111;921492;-65
2021/08/14 01:26:10;;;;;;;;;;;;;;;20.74;49.08;100956.03;472505;111;921546;-65
2021/08/14 01:27:14;;;;;;;;;;;;;;;20.74;49.16;100953.27;472484;111;921403;-66
2021/08/14 01:28:17;;;;;;;;;;;;;;;20.73;49.21;100957.16;471097;111;921428;-66
2021/08/14 01:29:20;;;;;;;;;;;;;;;20.73;49.22;100946.08;471945;111;921474;-66
2021/08/14 01:30:23;;;;;;;;;;;;;;;20.72;49.24;100948.02;471525;111;922172;-67
2021/08/14 01:31:26;;;;;;;;;;;;;;;20.72;49.29;100948.02;471128;111;921596;-66
2021/08/14 01:32:30;;;;;;;;;;;;;;;20.72;49.31;100948.02;471306;111;921403;-67
2021/08/14 01:33:34;;;;;;;;;;;;;;;20.72;49.30;100952.72;471456;111;921552;-66
2021/08/14 01:34:38;;;;;;;;;;;;;;;20.71;49.37;100948.28;470825;111;921595;-66
2021/08/14 01:35:42;;;;;;;;;;;;;;;20.70;49.43;100943.84;470363;111;921496;-66
2021/08/14 01:36:47;;;;;;;;;;;;;;;20.70;49.47;100943.84;470984;111;922779;-66
2021/08/14 01:37:51;;;;;;;;;;;;;;;20.70;49.52;100941.06;469752;111;922633;-65
2021/08/14 01:38:56;;;;;;;;;;;;;;;20.71;49.52;100942.73;469408;111;921487;-65
2021/08/14 01:40:00;;;;;;;;;;;;;;;20.70;49.50;100941.90;467857;111;922717;-67
2021/08/14 01:41:05;;;;;;;;;;;;;;;20.69;49.55;100942.16;468830;111;922652;-65
2021/08/14 01:42:08;;;;;;;;;;;;;;;20.68;49.61;100946.88;468529;111;922652;-66
2021/08/14 01:43:12;;;;;;;;;;;;;;;20.68;49.62;100946.88;468056;111;922688;-65
2021/08/14 01:44:15;;;;;;;;;;;;;;;20.67;49.66;100939.69;467734;111;922778;-65
2021/08/14 01:45:19;;;;;;;;;;;;;;;20.66;49.74;100938.02;465554;111;922637;-65
2021/08/14 01:46:23;;;;;;;;;;;;;;;20.66;49.77;100942.73;467664;111;922686;-66
2021/08/14 01:47:27;;;;;;;;;;;;;;;20.67;49.81;100941.63;467778;111;922539;-67
2021/08/14 01:48:30;;;;;;;;;;;;;;;20.67;49.80;100938.86;473282;111;922623;-65
2021/08/14 01:49:34;;;;;;;;;;;;;;;20.66;49.81;100938.02;472138;111;922671;-65
2021/08/14 01:50:38;;;;;;;;;;;;;;;20.68;49.84;100943.27;472304;111;924271;-65
2021/08/14 01:51:41;;;;;;;;;;;;;;;20.68;49.82;100943.27;471604;111;922733;-64
2021/08/14 01:52:45;;;;;;;;;;;;;;;20.67;50.08;100938.86;470033;111;923747;-65
2021/08/14 01:53:51;;;;;;;;;;;;;;;20.66;50.06;100942.73;471879;111;922725;-65
2021/08/14 01:54:54;;;;;;;;;;;;;;;20.65;50.06;100936.34;470768;111;922762;-64
2021/08/14 01:55:58;;;;;;;;;;;;;;;20.64;50.11;100931.07;470853;111;922644;-65
2021/08/14 01:57:01;;;;;;;;;;;;;;;20.63;50.19;100933.00;470358;111;922638;-65
2021/08/14 01:58:06;;;;;;;;;;;;;;;20.63;50.23;100935.78;470218;111;922648;-66
2021/08/14 01:59:10;;;;;;;;;;;;;;;20.62;50.25;100939.64;469467;111;923506;-67
2021/08/14 02:00:14;;;;;;;;;;;;;;;20.61;50.26;100938.00;468924;111;922671;-66
2021/08/14 02:01:17;;;;;;;;;;;;;;;20.59;50.52;100920.81;468943;111;922742;-66
2021/08/14 02:02:21;;;;;;;;;;;;;;;20.59;50.44;100925.52;469118;111;922397;-63
2021/08/14 02:03:25;;;;;;;;;;;;;;;20.58;50.57;100934.92;468255;111;922666;-66
2021/08/14 02:04:29;;;;;;;;;;;;;;;20.55;50.53;100930.78;468630;111;922316;-67
2021/08/14 02:05:32;;;;;;;;;;;;;;;20.55;50.59;100933.55;468365;111;923463;-67
2021/08/14 02:06:36;;;;;;;;;;;;;;;20.55;50.82;100927.17;467459;111;923225;-65
2021/08/14 02:07:40;;;;;;;;;;;;;;;20.55;50.78;100929.95;467708;111;922656;-65
2021/08/14 02:08:44;;;;;;;;;;;;;;;20.55;50.81;100929.95;470519;111;922730;-66
2021/08/14 02:09:47;;;;;;;;;;;;;;;20.55;50.83;100932.72;471915;111;923155;-65
2021/08/14 02:10:51;;;;;;;;;;;;;;;20.54;50.82;100931.88;473515;111;921402;-66
2021/08/14 02:11:55;;;;;;;;;;;;;;;20.52;50.87;100931.31;473159;111;921495;-65
2021/08/14 02:12:58;;;;;;;;;;;;;;;20.51;50.99;100928.83;470745;111;922655;-65
2021/08/14 02:14:03;;;;;;;;;;;;;;;20.49;51.01;100931.03;472109;111;922617;-66
2021/08/14 02:15:07;;;;;;;;;;;;;;;20.48;51.10;100930.20;471811;111;922703;-65
2021/08/14 02:16:11;;;;;;;;;;;;;;;20.48;51.21;100932.13;469667;111;923117;-65
2021/08/14 02:17:14;;;;;;;;;;;;;;;20.48;51.17;100935.73;469604;111;921574;-65
2021/08/14 02:18:18;;;;;;;;;;;;;;;20.47;51.28;100936.83;471017;111;921444;-66
2021/08/14 02:19:21;;;;;;;;;;;;;;;20.47;51.26;100927.69;471335;111;921403;-66
2021/08/14 02:20:24;;;;;;;;;;;;;;;20.45;51.29;100930.75;470142;111;921521;-66
2021/08/14 02:21:27;;;;;;;;;;;;;;;20.44;51.35;100939.33;469984;111;921482;-66
2021/08/14 02:22:31;;;;;;;;;;;;;;;20.43;51.37;100927.41;469051;111;921458;-66
2021/08/14 02:23:34;;;;;;;;;;;;;;;20.42;51.48;100927.67;468737;111;921433;-66
2021/08/14 02:24:37;;;;;;;;;;;;;;;20.41;51.50;100940.69;467945;111;921422;-67
2021/08/14 02:25:40;;;;;;;;;;;;;;;20.40;51.54;100937.08;467711;111;921955;-65
2021/08/14 02:26:44;;;;;;;;;;;;;;;20.40;51.56;100936.24;468935;111;921560;-66
2021/08/14 02:27:48;;;;;;;;;;;;;;;20.39;51.56;100931.84;466746;111;921293;-66
2021/08/14 02:28:52;;;;;;;;;;;;;;;20.38;51.60;100942.08;465439;112;921425;-66
2021/08/14 02:29:55;;;;;;;;;;;;;;;20.37;51.80;100928.49;469313;112;921620;-66
2021/08/14 02:30:59;;;;;;;;;;;;;;;20.35;51.87;100931.52;471309;112;921548;-66
2021/08/14 02:32:03;;;;;;;;;;;;;;;20.34;51.82;100931.81;472601;112;921459;-65
2021/08/14 02:33:06;;;;;;;;;;;;;;;20.34;51.84;100940.12;471148;112;921798;-66
2021/08/14 02:34:10;;;;;;;;;;;;;;;20.34;51.93;100937.36;468676;112;923349;-66
2021/08/14 02:35:14;;;;;;;;;;;;;;;20.33;52.13;100932.92;469477;112;922747;-64
2021/08/14 02:36:18;;;;;;;;;;;;;;;20.32;52.05;100931.24;470574;112;921517;-66
2021/08/14 02:37:22;;;;;;;;;;;;;;;20.31;52.01;100932.31;469720;112;922626;-66
2021/08/14 02:38:25;;;;;;;;;;;;;;;20.28;52.20;100930.93;467804;112;923148;-66
2021/08/14 02:39:29;;;;;;;;;;;;;;;20.29;52.17;100934.50;468056;112;922602;-66
2021/08/14 02:40:34;;;;;;;;;;;;;;;20.28;52.16;100942.01;467864;112;921476;-65
2021/08/14 02:41:38;;;;;;;;;;;;;;;20.28;52.27;100930.09;468665;112;922719;-66
2021/08/14 02:42:42;;;;;;;;;;;;;;;20.28;52.23;100930.09;467981;112;923101;-66
2021/08/14 02:43:45;;;;;;;;;;;;;;;20.26;52.29;100941.44;465580;112;922689;-65
2021/08/14 02:44:49;;;;;;;;;;;;;;;20.27;52.32;100936.73;464815;112;922762;-65
2021/08/14 02:45:52;;;;;;;;;;;;;;;20.25;52.38;100936.99;465310;112;921589;-66
2021/08/14 02:46:56;;;;;;;;;;;;;;;20.21;52.42;100941.41;472215;112;921438;-64
2021/08/14 02:48:00;;;;;;;;;;;;;;;20.19;52.43;100937.23;471496;112;922661;-66
2021/08/14 02:49:04;;;;;;;;;;;;;;;20.17;52.54;100937.52;471993;112;922647;-64
2021/08/14 02:50:08;;;;;;;;;;;;;;;20.15;52.50;100925.88;470727;112;923524;-66
2021/08/14 02:51:11;;;;;;;;;;;;;;;20.15;52.56;100944.42;471303;112;922743;-64
2021/08/14 02:52:15;;;;;;;;;;;;;;;20.14;52.53;100951.05;470268;112;923153;-66
2021/08/14 02:53:19;;;;;;;;;;;;;;;20.12;52.61;100942.20;471647;112;922701;-64
2021/08/14 02:54:22;;;;;;;;;;;;;;;20.12;52.54;100940.27;470443;112;923317;-65
2021/08/14 02:55:26;;;;;;;;;;;;;;;20.10;52.57;100936.09;470862;111;922628;-66
2021/08/14 02:56:29;;;;;;;;;;;;;;;20.08;52.61;100943.83;469871;112;922648;-65
2021/08/14 02:57:33;;;;;;;;;;;;;;;20.05;52.60;100942.44;469060;112;924185;-66
2021/08/14 02:58:36;;;;;;;;;;;;;;;20.06;52.66;100943.28;469837;112;922695;-66
2021/08/14 02:59:40;;;;;;;;;;;;;;;20.06;52.69;100941.34;467811;112;922620;-66
2021/08/14 03:00:44;;;;;;;;;;;;;;;20.07;52.71;100940.22;466810;111;923108;-65
2021/08/14 03:01:47;;;;;;;;;;;;;;;20.07;52.65;100942.98;466288;112;921596;-65
2021/08/14 03:02:51;;;;;;;;;;;;;;;20.07;52.64;100942.98;465686;112;921658;-66
2021/08/14 03:03:55;;;;;;;;;;;;;;;20.07;52.62;100945.75;467780;112;921391;-66
2021/08/14 03:04:58;;;;;;;;;;;;;;;20.06;52.74;100932.20;467109;112;922533;-67
2021/08/14 03:06:02;;;;;;;;;;;;;;;20.07;52.62;100940.22;467387;112;922584;-66
2021/08/14 03:07:05;;;;;;;;;;;;;;;20.07;52.60;100937.45;467228;112;921519;-66
2021/08/14 03:08:09;;;;;;;;;;;;;;;20.07;52.61;100945.75;466405;112;921463;-66
2021/08/14 03:09:13;;;;;;;;;;;;;;;20.07;52.64;100944.95;466809;112;922649;-66
2021/08/14 03:10:16;;;;;;;;;;;;;;;20.07;52.66;100939.41;471901;111;922862;-65
2021/08/14 03:11:20;;;;;;;;;;;;;;;20.07;52.65;100945.75;471406;112;921615;-66
2021/08/14 03:12:23;;;;;;;;;;;;;;;20.08;52.64;100941.89;471519;112;921517;-66
2021/08/14 03:13:26;;;;;;;;;;;;;;;20.09;52.63;100942.73;470929;112;921556;-66
2021/08/14 03:14:30;;;;;;;;;;;;;;;20.09;52.63;100943.56;470327;112;921556;-67
2021/08/14 03:15:33;;;;;;;;;;;;;;;20.10;52.62;100947.16;470302;112;921509;-66
2021/08/14 03:16:36;;;;;;;;;;;;;;;20.10;52.61;100947.16;471007;112;921478;-66
2021/08/14 03:17:40;;;;;;;;;;;;;;;20.10;52.52;100953.54;469875;112;921392;-66
2021/08/14 03:18:43;;;;;;;;;;;;;;;20.09;52.54;100960.17;470504;112;921440;-66
2021/08/14 03:19:46;;;;;;;;;;;;;;;20.09;52.55;100960.17;469252;112;922017;-66
2021/08/14 03:20:49;;;;;;;;;;;;;;;20.09;52.59;100956.56;469617;112;921472;-66
2021/08/14 03:21:52;;;;;;;;;;;;;;;20.08;52.73;100960.44;470129;112;921458;-66
2021/08/14 03:22:55;;;;;;;;;;;;;;;20.07;52.65;100962.36;469102;112;921421;-66
2021/08/14 03:23:58;;;;;;;;;;;;;;;20.07;52.67;100956.83;468432;112;921849;-66
2021/08/14 03:25:02;;;;;;;;;;;;;;;20.08;52.65;100963.20;467845;112;921552;-66
2021/08/14 03:26:05;;;;;;;;;;;;;;;20.07;52.65;100954.06;467155;112;921480;-66
2021/08/14 03:27:08;;;;;;;;;;;;;;;20.08;52.74;100964.03;467168;112;921463;-66
2021/08/14 03:28:11;;;;;;;;;;;;;;;20.10;52.71;100959.08;463267;112;922456;-66
2021/08/14 03:29:15;;;;;;;;;;;;;;;20.11;52.71;100957.98;462801;112;922839;-66
2021/08/14 03:30:18;;;;;;;;;;;;;;;20.13;52.71;100955.75;469661;112;922676;-65
2021/08/14 03:31:22;;;;;;;;;;;;;;;20.13;52.71;100950.22;468906;112;922633;-65
2021/08/14 03:32:25;;;;;;;;;;;;;;;20.14;52.66;100960.20;468332;112;922333;-66
2021/08/14 03:33:29;;;;;;;;;;;;;;;20.15;52.68;100961.87;466582;112;921539;-66
2021/08/14 03:34:32;;;;;;;;;;;;;;;20.15;52.60;100959.10;468052;112;922928;-65
2021/08/14 03:35:35;;;;;;;;;;;;;;;20.18;52.60;100954.97;466638;110;922685;-65
2021/08/14 03:36:39;;;;;;;;;;;;;;;20.17;52.64;100956.91;466338;112;922665;-66
2021/08/14 03:37:42;;;;;;;;;;;;;;;20.18;52.64;100961.31;466134;112;922643;-66
2021/08/14 03:38:46;;;;;;;;;;;;;;;20.20;52.62;100963.83;466504;112;924171;-65
2021/08/14 03:39:50;;;;;;;;;;;;;;;20.20;52.63;100963.83;466792;112;922735;-65
2021/08/14 03:40:54;;;;;;;;;;;;;;;20.20;52.60;100961.89;465450;112;922618;-65
2021/08/14 03:41:58;;;;;;;;;;;;;;;20.22;52.64;100961.63;465926;112;923168;-65
2021/08/14 03:43:02;;;;;;;;;;;;;;;20.23;52.70;100966.88;464791;112;922928;-67
2021/08/14 03:44:06;;;;;;;;;;;;;;;20.24;52.61;100967.72;464774;112;922619;-66
2021/08/14 03:45:09;;;;;;;;;;;;;;;20.25;52.61;100961.91;464290;112;922688;-66
2021/08/14 03:46:14;;;;;;;;;;;;;;;20.27;52.68;100969.96;464309;112;922647;-64
2021/08/14 03:47:18;;;;;;;;;;;;;;;20.28;52.64;100971.63;464138;112;923147;-66
2021/08/14 03:48:21;;;;;;;;;;;;;;;20.28;52.72;100961.39;463388;112;922610;-65
2021/08/14 03:49:25;;;;;;;;;;;;;;;20.31;52.65;100966.41;463828;112;922793;-65
2021/08/14 03:50:29;;;;;;;;;;;;;;;20.31;52.68;100969.18;467094;110;923114;-65
2021/08/14 03:51:32;;;;;;;;;;;;;;;20.32;52.64;100965.31;467275;112;922657;-66
2021/08/14 03:52:36;;;;;;;;;;;;;;;20.34;52.58;100976.13;468379;112;922679;-66
2021/08/14 03:53:40;;;;;;;;;;;;;;;20.34;52.61;100963.09;467624;112;922677;-65
2021/08/14 03:54:43;;;;;;;;;;;;;;;20.35;52.56;100969.47;469005;112;922659;-65
2021/08/14 03:55:47;;;;;;;;;;;;;;;20.35;52.59;100967.53;467332;112;922678;-64
2021/08/14 03:56:53;;;;;;;;;;;;;;;20.37;52.62;100979.19;467684;112;923100;-64
2021/08/14 03:57:57;;;;;;;;;;;;;;;20.40;52.56;100967.55;464980;112;922554;-65
2021/08/14 03:59:00;;;;;;;;;;;;;;;20.43;52.64;100970.89;465348;112;922772;-66
2021/08/14 04:00:04;;;;;;;;;;;;;;;20.44;52.61;100970.63;467341;112;923425;-65
2021/08/14 04:01:07;;;;;;;;;;;;;;;20.45;52.61;100974.23;466117;111;923186;-65
2021/08/14 04:02:11;;;;;;;;;;;;;;;20.46;52.59;100962.86;465674;112;921511;-65
2021/08/14 04:03:15;;;;;;;;;;;;;;;20.48;52.61;100973.68;466226;112;922678;-66
2021/08/14 04:04:18;;;;;;;;;;;;;;;20.48;52.58;100974.52;466019;112;922557;-66
2021/08/14 04:05:22;;;;;;;;;;;;;;;20.49;52.56;100969.81;465336;110;921711;-67
2021/08/14 04:06:25;;;;;;;;;;;;;;;20.51;52.55;100964.84;463781;112;921399;-67
2021/08/14 04:07:28;;;;;;;;;;;;;;;20.51;52.55;100965.65;457671;114;921471;-67
2021/08/14 04:08:31;;;;;;;;;;;;;;;20.52;52.51;100967.32;457746;114;921463;-67
2021/08/14 04:09:35;;;;;;;;;;;;;;;20.53;52.50;100965.39;463726;112;921401;-67
2021/08/14 04:10:39;;;;;;;;;;;;;;;20.52;52.50;100970.09;463068;112;921493;-65
2021/08/14 04:11:43;;;;;;;;;;;;;;;20.51;52.44;100978.70;466107;112;921585;-65
2021/08/14 04:12:46;;;;;;;;;;;;;;;20.50;52.51;100969.55;468907;112;922055;-65
2021/08/14 04:13:50;;;;;;;;;;;;;;;20.50;52.58;100972.32;467936;112;921563;-67
2021/08/14 04:14:53;;;;;;;;;;;;;;;20.50;52.64;100968.72;466812;112;921442;-66
2021/08/14 04:15:58;;;;;;;;;;;;;;;20.52;52.64;100980.34;468574;112;921545;-67
2021/08/14 04:17:01;;;;;;;;;;;;;;;20.52;52.60;100977.56;468823;112;921399;-67
2021/08/14 04:18:04;;;;;;;;;;;;;;;20.53;52.61;100987.55;467224;112;921433;-66
2021/08/14 04:19:08;;;;;;;;;;;;;;;20.53;52.53;100985.62;467340;112;921479;-65
2021/08/14 04:20:12;;;;;;;;;;;;;;;20.53;52.60;100991.16;467368;112;921374;-65
2021/08/14 04:21:15;;;;;;;;;;;;;;;20.54;52.56;100986.45;467711;112;921455;-66
2021/08/14 04:22:18;;;;;;;;;;;;;;;20.52;52.51;100986.72;466423;112;921506;-67
2021/08/14 04:23:21;;;;;;;;;;;;;;;20.51;52.45;100990.58;466294;112;921874;-67
2021/08/14 04:24:24;;;;;;;;;;;;;;;20.51;52.53;100992.55;466202;112;921565;-66
2021/08/14 04:25:27;;;;;;;;;;;;;;;20.50;52.63;100988.94;465633;110;921464;-66
2021/08/14 04:26:30;;;;;;;;;;;;;;;20.49;52.73;100987.27;465079;112;923616;-67
2021/08/14 04:27:34;;;;;;;;;;;;;;;20.51;52.73;100995.31;464431;112;923230;-67
2021/08/14 04:28:37;;;;;;;;;;;;;;;20.51;52.78;101000.86;463561;112;922612;-66
2021/08/14 04:29:40;;;;;;;;;;;;;;;20.52;52.72;101002.50;461344;113;923825;-65
2021/08/14 04:30:44;;;;;;;;;;;;;;;20.53;52.68;100998.63;460408;113;922698;-65
2021/08/14 04:31:48;;;;;;;;;;;;;;;20.53;52.72;101001.41;461627;113;922624;-66
2021/08/14 04:32:52;;;;;;;;;;;;;;;20.53;52.85;101002.23;465799;113;922630;-64
2021/08/14 04:33:56;;;;;;;;;;;;;;;20.55;52.82;101007.52;465856;113;922716;-66
2021/08/14 04:35:04;;;;;;;;;;;;;;;20.56;52.90;101012.80;463851;113;922640;-65
2021/08/14 04:36:08;;;;;;;;;;;;;;;20.58;52.94;101009.73;463947;113;922591;-66
2021/08/14 04:37:13;;;;;;;;;;;;;;;20.61;52.81;101010.05;462879;113;922613;-66
2021/08/14 04:38:17;;;;;;;;;;;;;;;20.65;52.79;101013.09;464719;113;923591;-66
2021/08/14 04:39:20;;;;;;;;;;;;;;;20.68;52.67;101018.08;462831;113;923117;-66
2021/08/14 04:40:24;;;;;;;;;;;;;;;20.71;52.64;101009.24;462684;113;922733;-64
2021/08/14 04:41:28;;;;;;;;;;;;;;;20.74;52.62;101015.06;462639;113;922683;-65
2021/08/14 04:44:18;;;;;;;;;;;;;;;20.79;52.46;100997.61;462389;112;923522;-65
2021/08/14 04:45:24;;;;;;;;;;;;;;;20.84;52.48;101005.14;461616;113;923145;-66
2021/08/14 04:46:28;;;;;;;;;;;;;;;20.87;52.54;101010.13;461004;113;922646;-65
2021/08/14 04:47:31;;;;;;;;;;;;;;;20.89;52.33;101008.76;460734;113;922630;-65
2021/08/14 04:48:35;;;;;;;;;;;;;;;20.90;52.30;101006.79;461420;113;922699;-64
2021/08/14 04:49:38;;;;;;;;;;;;;;;20.91;52.20;101014.84;459335;113;923717;-65
2021/08/14 04:50:42;;;;;;;;;;;;;;;20.92;52.12;101012.91;465760;111;922631;-64
2021/08/14 04:51:46;;;;;;;;;;;;;;;20.91;52.05;101005.69;461920;113;922738;-65
2021/08/14 04:52:50;;;;;;;;;;;;;;;20.93;52.07;101011.80;464730;113;922792;-64
2021/08/14 04:53:54;;;;;;;;;;;;;;;20.93;52.22;101015.41;463589;113;922653;-65
2021/08/14 04:54:58;;;;;;;;;;;;;;;20.96;52.29;101009.31;464082;113;923140;-65
2021/08/14 04:56:01;;;;;;;;;;;;;;;20.96;52.26;101012.09;462551;113;922581;-66
2021/08/14 04:57:05;;;;;;;;;;;;;;;20.97;52.26;101005.44;463256;112;922638;-65
2021/08/14 04:58:11;;;;;;;;;;;;;;;20.99;52.27;101010.72;454916;115;922680;-64
2021/08/14 04:59:14;;;;;;;;;;;;;;;21.00;52.29;101004.08;456635;113;921449;-66
2021/08/14 05:00:17;;;;;;;;;;;;;;;21.02;52.30;101001.84;462352;113;921576;-65
2021/08/14 05:01:20;;;;;;;;;;;;;;;21.02;52.34;101002.67;463018;113;921372;-65
2021/08/14 05:02:24;;;;;;;;;;;;;;;21.04;52.27;100994.93;462402;113;921526;-65
2021/08/14 05:03:28;;;;;;;;;;;;;;;21.04;52.23;101000.47;462493;113;921636;-65
2021/08/14 05:04:31;;;;;;;;;;;;;;;21.04;52.32;101003.25;462067;113;921569;-66
2021/08/14 05:05:34;;;;;;;;;;;;;;;21.05;52.13;101004.92;461537;113;921483;-66
2021/08/14 05:06:38;;;;;;;;;;;;;;;21.07;52.00;100993.53;461025;113;921585;-66
2021/08/14 05:07:42;;;;;;;;;;;;;;;21.07;52.05;100997.14;461056;112;921382;-66
2021/08/14 05:08:45;;;;;;;;;;;;;;;21.09;52.04;100996.87;460273;113;921533;-66
2021/08/14 05:09:50;;;;;;;;;;;;;;;21.10;51.98;101010.47;460099;113;921441;-66
2021/08/14 05:10:53;;;;;;;;;;;;;;;21.11;52.05;101008.53;466526;113;921524;-65
2021/08/14 05:11:56;;;;;;;;;;;;;;;21.11;52.12;101006.59;463719;113;921553;-64
2021/08/14 05:13:00;;;;;;;;;;;;;;;21.09;51.96;101003.25;465297;112;921439;-64
2021/08/14 05:14:03;;;;;;;;;;;;;;;21.08;51.97;100997.97;465467;113;921384;-66
2021/08/14 05:15:07;;;;;;;;;;;;;;;21.05;52.13;100996.59;465795;113;921375;-65
2021/08/14 05:16:10;;;;;;;;;;;;;;;21.05;52.25;101001.31;464729;113;921407;-65
2021/08/14 05:17:13;;;;;;;;;;;;;;;21.06;52.33;101003.78;463904;113;923043;-66
2021/08/14 05:18:17;;;;;;;;;;;;;;;21.07;52.42;101005.45;463543;113;924096;-65
2021/08/14 05:19:21;;;;;;;;;;;;;;;21.08;52.60;101006.29;463201;113;922651;-64
2021/08/14 05:20:24;;;;;;;;;;;;;;;21.08;52.52;101009.91;462431;113;922686;-63
2021/08/14 05:21:29;;;;;;;;;;;;;;;21.08;52.46;101007.13;463810;111;922653;-64
2021/08/14 05:22:33;;;;;;;;;;;;;;;21.07;52.28;101015.71;463245;113;922634;-65
2021/08/14 05:23:36;;;;;;;;;;;;;;;21.05;52.31;101007.69;463024;113;923225;-64
2021/08/14 05:24:40;;;;;;;;;;;;;;;21.04;52.46;101016.27;461842;113;922647;-65
2021/08/14 05:25:43;;;;;;;;;;;;;;;21.03;52.60;101009.89;462246;113;923201;-63